sensor_id;sensor_type;location;lat;lon;timestamp;P1;durP1;ratioP1;P2;durP2;ratioP2
6348;SDS011;3207;42.648;23.406;2023-07-29T00:01:34;10.02;;;3.42;;
6348;SDS011;3207;42.648;23.406;2023-07-29T00:04:01;5.55;;;3.78;;
6348;SDS011;3207;42.648;23.406;2023-07-29T00:06:27;6.97;;;2.97;;
6348;SDS011;3207;42.648;23.406;2023-07-29T00:08:56;5.80;;;2.88;;
6348;SDS011;3207;42.648;23.406;2023-07-29T00:11:23;4.97;;;2.65;;
6348;SDS011;3207;42.648;23.406;2023-07-29T00:13:49;4.20;;;2.88;;
6348;SDS011;3207;42.648;23.406;2023-07-29T00:16:17;3.70;;;3.00;;
6348;SDS011;3207;42.648;23.406;2023-07-29T00:18:47;5.18;;;3.38;;
6348;SDS011;3207;42.648;23.406;2023-07-29T00:21:14;7.88;;;3.35;;
6348;SDS011;3207;42.648;23.406;2023-07-29T00:23:44;4.43;;;3.35;;
6348;SDS011;3207;42.648;23.406;2023-07-29T00:26:12;6.03;;;2.63;;
6348;SDS011;3207;42.648;23.406;2023-07-29T00:28:39;9.35;;;3.05;;
6348;SDS011;3207;42.648;23.406;2023-07-29T00:31:06;7.65;;;3.08;;
6348;SDS011;3207;42.648;23.406;2023-07-29T00:33:33;4.80;;;3.15;;
6348;SDS011;3207;42.648;23.406;2023-07-29T00:36:00;4.07;;;3.67;;
6348;SDS011;3207;42.648;23.406;2023-07-29T00:38:28;3.47;;;2.97;;
6348;SDS011;3207;42.648;23.406;2023-07-29T00:40:55;6.45;;;3.38;;
6348;SDS011;3207;42.648;23.406;2023-07-29T00:43:24;3.67;;;2.70;;
6348;SDS011;3207;42.648;23.406;2023-07-29T00:45:51;4.00;;;2.75;;
6348;SDS011;3207;42.648;23.406;2023-07-29T00:48:19;5.80;;;2.78;;
6348;SDS011;3207;42.648;23.406;2023-07-29T00:50:46;4.47;;;3.10;;
6348;SDS011;3207;42.648;23.406;2023-07-29T00:53:13;6.45;;;3.90;;
6348;SDS011;3207;42.648;23.406;2023-07-29T00:55:40;5.28;;;2.60;;
6348;SDS011;3207;42.648;23.406;2023-07-29T00:58:07;4.75;;;2.72;;
6348;SDS011;3207;42.648;23.406;2023-07-29T01:00:36;6.20;;;2.88;;
6348;SDS011;3207;42.648;23.406;2023-07-29T01:03:03;6.13;;;3.08;;
6348;SDS011;3207;42.648;23.406;2023-07-29T01:05:32;4.57;;;2.72;;
6348;SDS011;3207;42.648;23.406;2023-07-29T01:08:05;3.63;;;3.00;;
6348;SDS011;3207;42.648;23.406;2023-07-29T01:10:40;5.63;;;3.08;;
6348;SDS011;3207;42.648;23.406;2023-07-29T01:13:19;7.82;;;3.75;;
6348;SDS011;3207;42.648;23.406;2023-07-29T01:15:54;7.57;;;3.58;;
6348;SDS011;3207;42.648;23.406;2023-07-29T01:18:26;4.32;;;3.15;;
6348;SDS011;3207;42.648;23.406;2023-07-29T01:20:58;8.35;;;3.35;;
6348;SDS011;3207;42.648;23.406;2023-07-29T01:23:27;6.22;;;3.35;;
6348;SDS011;3207;42.648;23.406;2023-07-29T01:25:55;6.03;;;2.70;;
6348;SDS011;3207;42.648;23.406;2023-07-29T01:28:22;5.95;;;3.13;;
6348;SDS011;3207;42.648;23.406;2023-07-29T01:30:51;5.57;;;3.15;;
6348;SDS011;3207;42.648;23.406;2023-07-29T01:33:24;7.68;;;3.63;;
6348;SDS011;3207;42.648;23.406;2023-07-29T01:35:54;4.35;;;3.00;;
6348;SDS011;3207;42.648;23.406;2023-07-29T01:38:27;6.43;;;3.08;;
6348;SDS011;3207;42.648;23.406;2023-07-29T01:41:00;4.78;;;3.47;;
6348;SDS011;3207;42.648;23.406;2023-07-29T01:43:28;4.80;;;3.30;;
6348;SDS011;3207;42.648;23.406;2023-07-29T01:45:55;5.70;;;3.05;;
6348;SDS011;3207;42.648;23.406;2023-07-29T01:48:22;6.10;;;4.25;;
6348;SDS011;3207;42.648;23.406;2023-07-29T01:50:49;5.32;;;3.50;;
6348;SDS011;3207;42.648;23.406;2023-07-29T01:53:16;5.75;;;3.15;;
6348;SDS011;3207;42.648;23.406;2023-07-29T01:55:44;6.28;;;3.10;;
6348;SDS011;3207;42.648;23.406;2023-07-29T01:58:11;3.85;;;3.00;;
6348;SDS011;3207;42.648;23.406;2023-07-29T02:00:39;5.28;;;3.25;;
6348;SDS011;3207;42.648;23.406;2023-07-29T02:03:06;7.63;;;3.25;;
6348;SDS011;3207;42.648;23.406;2023-07-29T02:05:33;4.68;;;3.17;;
6348;SDS011;3207;42.648;23.406;2023-07-29T02:08:00;5.80;;;3.45;;
6348;SDS011;3207;42.648;23.406;2023-07-29T02:10:26;4.25;;;3.30;;
6348;SDS011;3207;42.648;23.406;2023-07-29T02:12:54;5.20;;;3.22;;
6348;SDS011;3207;42.648;23.406;2023-07-29T02:15:21;6.75;;;2.80;;
6348;SDS011;3207;42.648;23.406;2023-07-29T02:17:49;6.55;;;3.15;;
6348;SDS011;3207;42.648;23.406;2023-07-29T02:20:17;6.43;;;3.35;;
6348;SDS011;3207;42.648;23.406;2023-07-29T02:22:43;5.63;;;3.10;;
6348;SDS011;3207;42.648;23.406;2023-07-29T02:25:10;5.55;;;3.45;;
6348;SDS011;3207;42.648;23.406;2023-07-29T02:27:37;6.47;;;2.85;;
6348;SDS011;3207;42.648;23.406;2023-07-29T02:30:06;7.72;;;3.60;;
6348;SDS011;3207;42.648;23.406;2023-07-29T02:32:34;5.38;;;3.22;;
6348;SDS011;3207;42.648;23.406;2023-07-29T02:35:01;4.93;;;3.38;;
6348;SDS011;3207;42.648;23.406;2023-07-29T02:37:28;8.93;;;3.13;;
6348;SDS011;3207;42.648;23.406;2023-07-29T02:39:55;5.22;;;3.53;;
6348;SDS011;3207;42.648;23.406;2023-07-29T02:42:22;4.78;;;3.40;;
6348;SDS011;3207;42.648;23.406;2023-07-29T02:44:48;4.22;;;3.03;;
6348;SDS011;3207;42.648;23.406;2023-07-29T02:47:17;5.13;;;2.85;;
6348;SDS011;3207;42.648;23.406;2023-07-29T02:49:44;4.63;;;3.47;;
6348;SDS011;3207;42.648;23.406;2023-07-29T02:52:11;7.97;;;3.45;;
6348;SDS011;3207;42.648;23.406;2023-07-29T02:54:38;3.55;;;2.88;;
6348;SDS011;3207;42.648;23.406;2023-07-29T02:57:05;5.20;;;2.92;;
6348;SDS011;3207;42.648;23.406;2023-07-29T02:59:31;4.75;;;3.10;;
6348;SDS011;3207;42.648;23.406;2023-07-29T03:01:58;5.93;;;3.63;;
6348;SDS011;3207;42.648;23.406;2023-07-29T03:04:26;4.72;;;3.00;;
6348;SDS011;3207;42.648;23.406;2023-07-29T03:06:53;3.90;;;2.80;;
6348;SDS011;3207;42.648;23.406;2023-07-29T03:09:20;5.70;;;3.63;;
6348;SDS011;3207;42.648;23.406;2023-07-29T03:11:47;4.70;;;3.60;;
6348;SDS011;3207;42.648;23.406;2023-07-29T03:14:14;5.68;;;3.92;;
6348;SDS011;3207;42.648;23.406;2023-07-29T03:16:40;7.18;;;3.75;;
6348;SDS011;3207;42.648;23.406;2023-07-29T03:19:07;6.25;;;3.08;;
6348;SDS011;3207;42.648;23.406;2023-07-29T03:21:35;8.20;;;3.28;;
6348;SDS011;3207;42.648;23.406;2023-07-29T03:24:02;4.35;;;3.38;;
6348;SDS011;3207;42.648;23.406;2023-07-29T03:26:29;5.05;;;3.50;;
6348;SDS011;3207;42.648;23.406;2023-07-29T03:28:56;6.97;;;3.47;;
6348;SDS011;3207;42.648;23.406;2023-07-29T03:31:23;8.02;;;3.67;;
6348;SDS011;3207;42.648;23.406;2023-07-29T03:33:49;7.15;;;3.40;;
6348;SDS011;3207;42.648;23.406;2023-07-29T03:36:16;6.13;;;3.20;;
6348;SDS011;3207;42.648;23.406;2023-07-29T03:38:45;6.80;;;3.38;;
6348;SDS011;3207;42.648;23.406;2023-07-29T03:41:12;7.47;;;3.97;;
6348;SDS011;3207;42.648;23.406;2023-07-29T03:43:39;5.50;;;3.72;;
6348;SDS011;3207;42.648;23.406;2023-07-29T03:46:06;5.88;;;3.35;;
6348;SDS011;3207;42.648;23.406;2023-07-29T03:48:33;7.53;;;4.43;;
6348;SDS011;3207;42.648;23.406;2023-07-29T03:50:59;3.72;;;3.08;;
6348;SDS011;3207;42.648;23.406;2023-07-29T03:53:29;3.80;;;3.38;;
6348;SDS011;3207;42.648;23.406;2023-07-29T03:56:00;4.68;;;3.58;;
6348;SDS011;3207;42.648;23.406;2023-07-29T03:58:27;5.20;;;3.10;;
6348;SDS011;3207;42.648;23.406;2023-07-29T04:00:53;5.40;;;3.40;;
6348;SDS011;3207;42.648;23.406;2023-07-29T04:03:20;5.93;;;3.45;;
6348;SDS011;3207;42.648;23.406;2023-07-29T04:05:47;6.80;;;3.90;;
6348;SDS011;3207;42.648;23.406;2023-07-29T04:08:14;3.88;;;3.47;;
6348;SDS011;3207;42.648;23.406;2023-07-29T04:10:41;6.57;;;3.40;;
6348;SDS011;3207;42.648;23.406;2023-07-29T04:13:09;6.15;;;3.60;;
6348;SDS011;3207;42.648;23.406;2023-07-29T04:15:36;6.30;;;3.53;;
6348;SDS011;3207;42.648;23.406;2023-07-29T04:18:03;8.45;;;4.45;;
6348;SDS011;3207;42.648;23.406;2023-07-29T04:20:29;6.85;;;3.85;;
6348;SDS011;3207;42.648;23.406;2023-07-29T04:22:56;8.52;;;3.80;;
6348;SDS011;3207;42.648;23.406;2023-07-29T04:25:29;5.40;;;3.50;;
6348;SDS011;3207;42.648;23.406;2023-07-29T04:27:56;6.25;;;3.75;;
6348;SDS011;3207;42.648;23.406;2023-07-29T04:30:24;5.85;;;3.25;;
6348;SDS011;3207;42.648;23.406;2023-07-29T04:32:51;5.07;;;3.55;;
6348;SDS011;3207;42.648;23.406;2023-07-29T04:35:18;9.63;;;6.18;;
6348;SDS011;3207;42.648;23.406;2023-07-29T04:37:44;4.65;;;3.15;;
6348;SDS011;3207;42.648;23.406;2023-07-29T04:40:13;8.25;;;4.72;;
6348;SDS011;3207;42.648;23.406;2023-07-29T04:42:40;10.38;;;4.78;;
6348;SDS011;3207;42.648;23.406;2023-07-29T04:45:07;8.65;;;4.97;;
6348;SDS011;3207;42.648;23.406;2023-07-29T04:47:35;3.92;;;3.60;;
6348;SDS011;3207;42.648;23.406;2023-07-29T04:50:03;10.00;;;4.45;;
6348;SDS011;3207;42.648;23.406;2023-07-29T04:52:31;5.32;;;4.00;;
6348;SDS011;3207;42.648;23.406;2023-07-29T04:54:58;6.40;;;4.65;;
6348;SDS011;3207;42.648;23.406;2023-07-29T04:57:24;6.50;;;4.25;;
6348;SDS011;3207;42.648;23.406;2023-07-29T04:59:51;7.18;;;4.15;;
6348;SDS011;3207;42.648;23.406;2023-07-29T05:02:18;6.88;;;3.55;;
6348;SDS011;3207;42.648;23.406;2023-07-29T05:04:47;6.63;;;3.88;;
6348;SDS011;3207;42.648;23.406;2023-07-29T05:07:14;7.22;;;4.65;;
6348;SDS011;3207;42.648;23.406;2023-07-29T05:09:41;8.07;;;4.35;;
6348;SDS011;3207;42.648;23.406;2023-07-29T05:12:08;6.53;;;3.10;;
6348;SDS011;3207;42.648;23.406;2023-07-29T05:14:35;5.57;;;4.50;;
6348;SDS011;3207;42.648;23.406;2023-07-29T05:17:01;7.45;;;4.07;;
6348;SDS011;3207;42.648;23.406;2023-07-29T05:19:28;10.35;;;4.60;;
6348;SDS011;3207;42.648;23.406;2023-07-29T05:21:57;5.55;;;3.55;;
6348;SDS011;3207;42.648;23.406;2023-07-29T05:24:23;6.22;;;3.75;;
6348;SDS011;3207;42.648;23.406;2023-07-29T05:26:50;5.65;;;3.60;;
6348;SDS011;3207;42.648;23.406;2023-07-29T05:29:17;9.15;;;3.72;;
6348;SDS011;3207;42.648;23.406;2023-07-29T05:31:44;9.15;;;5.80;;
6348;SDS011;3207;42.648;23.406;2023-07-29T05:34:11;5.78;;;3.55;;
6348;SDS011;3207;42.648;23.406;2023-07-29T05:36:37;3.92;;;3.40;;
6348;SDS011;3207;42.648;23.406;2023-07-29T05:39:07;5.30;;;3.53;;
6348;SDS011;3207;42.648;23.406;2023-07-29T05:41:34;6.65;;;4.28;;
6348;SDS011;3207;42.648;23.406;2023-07-29T05:44:00;7.32;;;4.47;;
6348;SDS011;3207;42.648;23.406;2023-07-29T05:46:27;5.45;;;3.72;;
6348;SDS011;3207;42.648;23.406;2023-07-29T05:48:54;5.63;;;3.85;;
6348;SDS011;3207;42.648;23.406;2023-07-29T05:51:21;6.38;;;3.55;;
6348;SDS011;3207;42.648;23.406;2023-07-29T05:53:48;4.88;;;3.90;;
6348;SDS011;3207;42.648;23.406;2023-07-29T05:56:16;4.55;;;4.05;;
6348;SDS011;3207;42.648;23.406;2023-07-29T05:58:43;4.05;;;3.50;;
6348;SDS011;3207;42.648;23.406;2023-07-29T06:01:09;4.93;;;3.92;;
6348;SDS011;3207;42.648;23.406;2023-07-29T06:03:37;5.78;;;4.40;;
6348;SDS011;3207;42.648;23.406;2023-07-29T06:06:03;12.18;;;5.32;;
6348;SDS011;3207;42.648;23.406;2023-07-29T06:08:30;17.90;;;9.25;;
6348;SDS011;3207;42.648;23.406;2023-07-29T06:10:59;16.80;;;7.68;;
6348;SDS011;3207;42.648;23.406;2023-07-29T06:13:27;18.70;;;10.05;;
6348;SDS011;3207;42.648;23.406;2023-07-29T06:15:54;16.38;;;8.98;;
6348;SDS011;3207;42.648;23.406;2023-07-29T06:18:21;11.68;;;6.10;;
6348;SDS011;3207;42.648;23.406;2023-07-29T06:20:48;24.35;;;13.32;;
6348;SDS011;3207;42.648;23.406;2023-07-29T06:23:15;11.75;;;7.68;;
6348;SDS011;3207;42.648;23.406;2023-07-29T06:25:41;24.30;;;14.35;;
6348;SDS011;3207;42.648;23.406;2023-07-29T06:28:08;18.80;;;8.63;;
6348;SDS011;3207;42.648;23.406;2023-07-29T06:30:36;11.00;;;5.72;;
6348;SDS011;3207;42.648;23.406;2023-07-29T06:33:03;9.35;;;6.75;;
6348;SDS011;3207;42.648;23.406;2023-07-29T06:35:30;11.52;;;6.00;;
6348;SDS011;3207;42.648;23.406;2023-07-29T06:37:57;10.13;;;5.32;;
6348;SDS011;3207;42.648;23.406;2023-07-29T06:40:24;7.57;;;4.85;;
6348;SDS011;3207;42.648;23.406;2023-07-29T06:42:51;10.32;;;6.95;;
6348;SDS011;3207;42.648;23.406;2023-07-29T06:45:18;13.50;;;5.78;;
6348;SDS011;3207;42.648;23.406;2023-07-29T06:47:46;7.13;;;4.70;;
6348;SDS011;3207;42.648;23.406;2023-07-29T06:50:13;5.82;;;4.85;;
6348;SDS011;3207;42.648;23.406;2023-07-29T06:52:39;7.00;;;5.20;;
6348;SDS011;3207;42.648;23.406;2023-07-29T06:55:06;5.30;;;4.68;;
6348;SDS011;3207;42.648;23.406;2023-07-29T06:57:34;7.13;;;4.72;;
6348;SDS011;3207;42.648;23.406;2023-07-29T07:00:01;11.43;;;5.85;;
6348;SDS011;3207;42.648;23.406;2023-07-29T07:02:28;5.30;;;4.22;;
6348;SDS011;3207;42.648;23.406;2023-07-29T07:04:56;5.82;;;3.95;;
6348;SDS011;3207;42.648;23.406;2023-07-29T07:07:23;7.82;;;4.28;;
6348;SDS011;3207;42.648;23.406;2023-07-29T07:09:50;6.50;;;4.55;;
6348;SDS011;3207;42.648;23.406;2023-07-29T07:12:17;4.78;;;4.28;;
6348;SDS011;3207;42.648;23.406;2023-07-29T07:14:43;5.72;;;4.82;;
6348;SDS011;3207;42.648;23.406;2023-07-29T07:17:10;4.93;;;4.45;;
6348;SDS011;3207;42.648;23.406;2023-07-29T07:19:37;5.15;;;4.45;;
6348;SDS011;3207;42.648;23.406;2023-07-29T07:22:05;5.85;;;4.63;;
6348;SDS011;3207;42.648;23.406;2023-07-29T07:24:32;4.53;;;4.18;;
6348;SDS011;3207;42.648;23.406;2023-07-29T07:26:59;5.57;;;4.53;;
6348;SDS011;3207;42.648;23.406;2023-07-29T07:29:26;6.55;;;4.18;;
6348;SDS011;3207;42.648;23.406;2023-07-29T07:31:53;6.07;;;4.35;;
6348;SDS011;3207;42.648;23.406;2023-07-29T07:34:20;5.05;;;3.88;;
6348;SDS011;3207;42.648;23.406;2023-07-29T07:36:48;4.82;;;4.30;;
6348;SDS011;3207;42.648;23.406;2023-07-29T07:39:16;4.10;;;3.58;;
6348;SDS011;3207;42.648;23.406;2023-07-29T07:41:43;4.55;;;3.72;;
6348;SDS011;3207;42.648;23.406;2023-07-29T07:44:10;4.20;;;3.83;;
6348;SDS011;3207;42.648;23.406;2023-07-29T07:46:40;4.15;;;3.83;;
6348;SDS011;3207;42.648;23.406;2023-07-29T07:49:07;4.28;;;3.50;;
6348;SDS011;3207;42.648;23.406;2023-07-29T07:51:34;5.07;;;3.88;;
6348;SDS011;3207;42.648;23.406;2023-07-29T07:54:00;5.25;;;4.28;;
6348;SDS011;3207;42.648;23.406;2023-07-29T07:56:28;5.65;;;3.55;;
6348;SDS011;3207;42.648;23.406;2023-07-29T07:58:55;4.63;;;3.83;;
6348;SDS011;3207;42.648;23.406;2023-07-29T08:01:22;5.10;;;3.78;;
6348;SDS011;3207;42.648;23.406;2023-07-29T08:03:49;9.30;;;4.65;;
6348;SDS011;3207;42.648;23.406;2023-07-29T08:06:16;6.22;;;3.72;;
6348;SDS011;3207;42.648;23.406;2023-07-29T08:08:42;5.65;;;3.97;;
6348;SDS011;3207;42.648;23.406;2023-07-29T08:11:09;4.88;;;3.88;;
6348;SDS011;3207;42.648;23.406;2023-07-29T08:13:38;3.80;;;3.50;;
6348;SDS011;3207;42.648;23.406;2023-07-29T08:16:04;9.05;;;4.60;;
6348;SDS011;3207;42.648;23.406;2023-07-29T08:18:31;10.77;;;4.28;;
6348;SDS011;3207;42.648;23.406;2023-07-29T08:20:59;4.88;;;4.25;;
6348;SDS011;3207;42.648;23.406;2023-07-29T08:23:28;3.70;;;3.40;;
6348;SDS011;3207;42.648;23.406;2023-07-29T08:25:59;4.07;;;3.70;;
6348;SDS011;3207;42.648;23.406;2023-07-29T08:28:27;5.55;;;3.92;;
6348;SDS011;3207;42.648;23.406;2023-07-29T08:30:56;3.83;;;3.53;;
6348;SDS011;3207;42.648;23.406;2023-07-29T08:33:23;4.30;;;3.67;;
6348;SDS011;3207;42.648;23.406;2023-07-29T08:35:50;3.90;;;3.58;;
6348;SDS011;3207;42.648;23.406;2023-07-29T08:38:17;4.32;;;3.55;;
6348;SDS011;3207;42.648;23.406;2023-07-29T08:40:45;3.60;;;3.30;;
6348;SDS011;3207;42.648;23.406;2023-07-29T08:43:16;3.60;;;3.30;;
6348;SDS011;3207;42.648;23.406;2023-07-29T08:45:46;4.18;;;3.67;;
6348;SDS011;3207;42.648;23.406;2023-07-29T08:48:15;3.70;;;3.40;;
6348;SDS011;3207;42.648;23.406;2023-07-29T08:50:47;3.83;;;3.53;;
6348;SDS011;3207;42.648;23.406;2023-07-29T08:53:17;4.55;;;3.33;;
6348;SDS011;3207;42.648;23.406;2023-07-29T08:55:44;3.83;;;3.53;;
6348;SDS011;3207;42.648;23.406;2023-07-29T08:58:11;4.10;;;3.80;;
6348;SDS011;3207;42.648;23.406;2023-07-29T09:00:38;3.63;;;3.28;;
6348;SDS011;3207;42.648;23.406;2023-07-29T09:03:05;7.70;;;3.50;;
6348;SDS011;3207;42.648;23.406;2023-07-29T09:05:34;3.80;;;3.50;;
6348;SDS011;3207;42.648;23.406;2023-07-29T09:08:02;4.00;;;3.65;;
6348;SDS011;3207;42.648;23.406;2023-07-29T09:10:30;5.10;;;3.97;;
6348;SDS011;3207;42.648;23.406;2023-07-29T09:13:01;3.75;;;3.30;;
6348;SDS011;3207;42.648;23.406;2023-07-29T09:15:29;5.03;;;3.38;;
6348;SDS011;3207;42.648;23.406;2023-07-29T09:17:57;3.95;;;3.40;;
6348;SDS011;3207;42.648;23.406;2023-07-29T09:20:24;5.07;;;3.28;;
6348;SDS011;3207;42.648;23.406;2023-07-29T09:22:53;4.38;;;3.50;;
6348;SDS011;3207;42.648;23.406;2023-07-29T09:25:24;3.47;;;3.17;;
6348;SDS011;3207;42.648;23.406;2023-07-29T09:27:52;4.35;;;3.55;;
6348;SDS011;3207;42.648;23.406;2023-07-29T09:30:19;4.53;;;3.72;;
6348;SDS011;3207;42.648;23.406;2023-07-29T09:32:45;4.18;;;3.50;;
6348;SDS011;3207;42.648;23.406;2023-07-29T09:35:12;4.80;;;3.78;;
6348;SDS011;3207;42.648;23.406;2023-07-29T09:37:39;3.65;;;3.35;;
6348;SDS011;3207;42.648;23.406;2023-07-29T09:40:12;4.05;;;3.75;;
6348;SDS011;3207;42.648;23.406;2023-07-29T09:42:40;4.00;;;3.70;;
6348;SDS011;3207;42.648;23.406;2023-07-29T09:45:18;3.90;;;3.58;;
6348;SDS011;3207;42.648;23.406;2023-07-29T09:47:46;3.35;;;3.10;;
6348;SDS011;3207;42.648;23.406;2023-07-29T09:50:13;3.65;;;3.35;;
6348;SDS011;3207;42.648;23.406;2023-07-29T09:52:40;5.93;;;3.75;;
6348;SDS011;3207;42.648;23.406;2023-07-29T09:55:09;3.78;;;3.42;;
6348;SDS011;3207;42.648;23.406;2023-07-29T09:57:37;3.53;;;3.33;;
6348;SDS011;3207;42.648;23.406;2023-07-29T10:00:05;4.10;;;3.40;;
6348;SDS011;3207;42.648;23.406;2023-07-29T10:02:36;8.35;;;3.80;;
6348;SDS011;3207;42.648;23.406;2023-07-29T10:05:05;8.75;;;3.75;;
6348;SDS011;3207;42.648;23.406;2023-07-29T10:07:33;3.92;;;3.63;;
6348;SDS011;3207;42.648;23.406;2023-07-29T10:10:00;4.10;;;3.70;;
6348;SDS011;3207;42.648;23.406;2023-07-29T10:12:30;3.83;;;3.53;;
6348;SDS011;3207;42.648;23.406;2023-07-29T10:14:58;3.85;;;3.15;;
6348;SDS011;3207;42.648;23.406;2023-07-29T10:17:26;4.22;;;3.72;;
6348;SDS011;3207;42.648;23.406;2023-07-29T10:19:53;3.83;;;3.53;;
6348;SDS011;3207;42.648;23.406;2023-07-29T10:22:22;4.10;;;3.70;;
6348;SDS011;3207;42.648;23.406;2023-07-29T10:24:54;4.57;;;3.95;;
6348;SDS011;3207;42.648;23.406;2023-07-29T10:27:23;4.00;;;3.60;;
6348;SDS011;3207;42.648;23.406;2023-07-29T10:29:52;4.10;;;3.70;;
6348;SDS011;3207;42.648;23.406;2023-07-29T10:32:22;4.18;;;3.80;;
6348;SDS011;3207;42.648;23.406;2023-07-29T10:34:52;3.53;;;3.22;;
6348;SDS011;3207;42.648;23.406;2023-07-29T10:37:19;4.45;;;4.05;;
6348;SDS011;3207;42.648;23.406;2023-07-29T10:39:52;4.93;;;3.80;;
6348;SDS011;3207;42.648;23.406;2023-07-29T10:42:20;4.32;;;3.92;;
6348;SDS011;3207;42.648;23.406;2023-07-29T10:44:49;4.88;;;3.65;;
6348;SDS011;3207;42.648;23.406;2023-07-29T10:47:18;3.78;;;3.47;;
6348;SDS011;3207;42.648;23.406;2023-07-29T10:49:47;3.95;;;3.58;;
6348;SDS011;3207;42.648;23.406;2023-07-29T10:52:16;3.80;;;3.50;;
6348;SDS011;3207;42.648;23.406;2023-07-29T10:54:55;4.57;;;4.18;;
6348;SDS011;3207;42.648;23.406;2023-07-29T10:57:30;5.05;;;3.67;;
6348;SDS011;3207;42.648;23.406;2023-07-29T10:59:58;3.63;;;3.33;;
6348;SDS011;3207;42.648;23.406;2023-07-29T11:02:29;3.70;;;3.40;;
6348;SDS011;3207;42.648;23.406;2023-07-29T11:04:57;6.43;;;3.67;;
6348;SDS011;3207;42.648;23.406;2023-07-29T11:07:25;4.45;;;4.05;;
6348;SDS011;3207;42.648;23.406;2023-07-29T11:09:52;3.83;;;3.53;;
6348;SDS011;3207;42.648;23.406;2023-07-29T11:12:40;4.85;;;3.78;;
6348;SDS011;3207;42.648;23.406;2023-07-29T11:15:17;3.90;;;3.60;;
6348;SDS011;3207;42.648;23.406;2023-07-29T11:17:47;3.45;;;3.25;;
6348;SDS011;3207;42.648;23.406;2023-07-29T11:20:16;4.53;;;4.05;;
6348;SDS011;3207;42.648;23.406;2023-07-29T11:22:43;5.68;;;4.03;;
6348;SDS011;3207;42.648;23.406;2023-07-29T11:25:10;3.70;;;3.40;;
6348;SDS011;3207;42.648;23.406;2023-07-29T11:27:39;3.67;;;3.38;;
6348;SDS011;3207;42.648;23.406;2023-07-29T11:30:06;3.67;;;3.38;;
6348;SDS011;3207;42.648;23.406;2023-07-29T11:32:35;3.50;;;3.20;;
6348;SDS011;3207;42.648;23.406;2023-07-29T11:35:04;3.60;;;3.30;;
6348;SDS011;3207;42.648;23.406;2023-07-29T11:37:33;4.82;;;3.47;;
6348;SDS011;3207;42.648;23.406;2023-07-29T11:40:01;3.60;;;3.30;;
6348;SDS011;3207;42.648;23.406;2023-07-29T11:42:30;3.47;;;3.10;;
6348;SDS011;3207;42.648;23.406;2023-07-29T11:44:58;3.70;;;3.40;;
6348;SDS011;3207;42.648;23.406;2023-07-29T11:47:24;4.20;;;3.80;;
6348;SDS011;3207;42.648;23.406;2023-07-29T11:49:52;4.28;;;3.58;;
6348;SDS011;3207;42.648;23.406;2023-07-29T11:52:20;4.28;;;3.85;;
6348;SDS011;3207;42.648;23.406;2023-07-29T11:54:47;3.72;;;3.42;;
6348;SDS011;3207;42.648;23.406;2023-07-29T11:57:16;4.78;;;3.50;;
6348;SDS011;3207;42.648;23.406;2023-07-29T11:59:44;5.13;;;4.05;;
6348;SDS011;3207;42.648;23.406;2023-07-29T12:02:13;4.25;;;3.55;;
6348;SDS011;3207;42.648;23.406;2023-07-29T12:04:50;4.80;;;4.40;;
6348;SDS011;3207;42.648;23.406;2023-07-29T12:07:18;4.68;;;4.10;;
6348;SDS011;3207;42.648;23.406;2023-07-29T12:09:52;4.78;;;4.07;;
6348;SDS011;3207;42.648;23.406;2023-07-29T12:12:20;4.82;;;3.85;;
6348;SDS011;3207;42.648;23.406;2023-07-29T12:14:48;5.57;;;3.75;;
6348;SDS011;3207;42.648;23.406;2023-07-29T12:17:15;5.55;;;3.97;;
6348;SDS011;3207;42.648;23.406;2023-07-29T12:19:42;3.90;;;3.60;;
6348;SDS011;3207;42.648;23.406;2023-07-29T12:22:09;6.00;;;3.15;;
6348;SDS011;3207;42.648;23.406;2023-07-29T12:24:38;3.42;;;3.13;;
6348;SDS011;3207;42.648;23.406;2023-07-29T12:27:09;3.85;;;3.22;;
6348;SDS011;3207;42.648;23.406;2023-07-29T12:29:39;4.35;;;3.60;;
6348;SDS011;3207;42.648;23.406;2023-07-29T12:32:08;5.20;;;3.45;;
6348;SDS011;3207;42.648;23.406;2023-07-29T12:34:36;3.90;;;3.60;;
6348;SDS011;3207;42.648;23.406;2023-07-29T12:37:04;3.97;;;3.67;;
6348;SDS011;3207;42.648;23.406;2023-07-29T12:39:32;3.78;;;3.47;;
6348;SDS011;3207;42.648;23.406;2023-07-29T12:42:01;3.47;;;3.17;;
6348;SDS011;3207;42.648;23.406;2023-07-29T12:44:31;3.50;;;3.20;;
6348;SDS011;3207;42.648;23.406;2023-07-29T12:47:00;4.03;;;3.17;;
6348;SDS011;3207;42.648;23.406;2023-07-29T12:49:27;7.63;;;3.90;;
6348;SDS011;3207;42.648;23.406;2023-07-29T12:51:54;4.05;;;3.58;;
6348;SDS011;3207;42.648;23.406;2023-07-29T12:54:22;4.40;;;4.00;;
6348;SDS011;3207;42.648;23.406;2023-07-29T12:56:49;4.43;;;4.03;;
6348;SDS011;3207;42.648;23.406;2023-07-29T12:59:16;4.22;;;3.55;;
6348;SDS011;3207;42.648;23.406;2023-07-29T13:01:44;4.80;;;3.90;;
6348;SDS011;3207;42.648;23.406;2023-07-29T13:04:11;4.25;;;3.72;;
6348;SDS011;3207;42.648;23.406;2023-07-29T13:06:38;3.83;;;3.42;;
6348;SDS011;3207;42.648;23.406;2023-07-29T13:09:05;4.82;;;3.58;;
6348;SDS011;3207;42.648;23.406;2023-07-29T13:11:31;4.85;;;4.03;;
6348;SDS011;3207;42.648;23.406;2023-07-29T13:13:58;4.70;;;3.78;;
6348;SDS011;3207;42.648;23.406;2023-07-29T13:16:26;4.20;;;3.90;;
6348;SDS011;3207;42.648;23.406;2023-07-29T13:18:54;4.25;;;3.85;;
6348;SDS011;3207;42.648;23.406;2023-07-29T13:21:21;5.22;;;3.63;;
6348;SDS011;3207;42.648;23.406;2023-07-29T13:23:48;4.03;;;3.72;;
6348;SDS011;3207;42.648;23.406;2023-07-29T13:26:15;5.53;;;4.32;;
6348;SDS011;3207;42.648;23.406;2023-07-29T13:28:42;3.85;;;3.55;;
6348;SDS011;3207;42.648;23.406;2023-07-29T13:31:09;4.28;;;3.85;;
6348;SDS011;3207;42.648;23.406;2023-07-29T13:33:36;4.05;;;3.75;;
6348;SDS011;3207;42.648;23.406;2023-07-29T13:36:05;4.50;;;4.10;;
6348;SDS011;3207;42.648;23.406;2023-07-29T13:38:33;4.60;;;3.63;;
6348;SDS011;3207;42.648;23.406;2023-07-29T13:41:00;4.45;;;4.07;;
6348;SDS011;3207;42.648;23.406;2023-07-29T13:43:34;5.10;;;4.45;;
6348;SDS011;3207;42.648;23.406;2023-07-29T13:46:01;4.65;;;3.88;;
6348;SDS011;3207;42.648;23.406;2023-07-29T13:48:28;3.55;;;3.35;;
6348;SDS011;3207;42.648;23.406;2023-07-29T13:50:54;4.10;;;3.80;;
6348;SDS011;3207;42.648;23.406;2023-07-29T13:53:23;6.57;;;4.30;;
6348;SDS011;3207;42.648;23.406;2023-07-29T13:55:51;4.38;;;4.00;;
6348;SDS011;3207;42.648;23.406;2023-07-29T13:58:17;4.38;;;3.30;;
6348;SDS011;3207;42.648;23.406;2023-07-29T14:00:44;3.50;;;3.20;;
6348;SDS011;3207;42.648;23.406;2023-07-29T14:03:11;3.92;;;3.28;;
6348;SDS011;3207;42.648;23.406;2023-07-29T14:05:37;4.32;;;4.03;;
6348;SDS011;3207;42.648;23.406;2023-07-29T14:08:04;4.55;;;4.05;;
6348;SDS011;3207;42.648;23.406;2023-07-29T14:10:32;4.28;;;3.92;;
6348;SDS011;3207;42.648;23.406;2023-07-29T14:12:59;4.35;;;3.60;;
6348;SDS011;3207;42.648;23.406;2023-07-29T14:15:26;3.38;;;3.17;;
6348;SDS011;3207;42.648;23.406;2023-07-29T14:17:53;4.28;;;3.88;;
6348;SDS011;3207;42.648;23.406;2023-07-29T14:20:20;4.82;;;4.43;;
6348;SDS011;3207;42.648;23.406;2023-07-29T14:22:47;3.83;;;3.53;;
6348;SDS011;3207;42.648;23.406;2023-07-29T14:25:14;3.40;;;3.10;;
6348;SDS011;3207;42.648;23.406;2023-07-29T14:27:43;3.35;;;3.15;;
6348;SDS011;3207;42.648;23.406;2023-07-29T14:30:10;4.03;;;3.40;;
6348;SDS011;3207;42.648;23.406;2023-07-29T14:32:44;3.55;;;3.25;;
6348;SDS011;3207;42.648;23.406;2023-07-29T14:35:11;5.60;;;4.05;;
6348;SDS011;3207;42.648;23.406;2023-07-29T14:37:39;6.80;;;3.10;;
6348;SDS011;3207;42.648;23.406;2023-07-29T14:40:06;4.20;;;3.80;;
6348;SDS011;3207;42.648;23.406;2023-07-29T14:42:33;5.32;;;3.30;;
6348;SDS011;3207;42.648;23.406;2023-07-29T14:45:01;5.10;;;3.35;;
6348;SDS011;3207;42.648;23.406;2023-07-29T14:47:28;3.60;;;3.40;;
6348;SDS011;3207;42.648;23.406;2023-07-29T14:49:59;3.05;;;2.85;;
6348;SDS011;3207;42.648;23.406;2023-07-29T14:52:26;3.72;;;3.45;;
6348;SDS011;3207;42.648;23.406;2023-07-29T14:54:53;3.80;;;3.50;;
6348;SDS011;3207;42.648;23.406;2023-07-29T14:57:20;3.47;;;3.17;;
6348;SDS011;3207;42.648;23.406;2023-07-29T14:59:46;3.67;;;3.38;;
6348;SDS011;3207;42.648;23.406;2023-07-29T15:02:15;4.38;;;3.47;;
6348;SDS011;3207;42.648;23.406;2023-07-29T15:04:42;3.97;;;3.60;;